Time;durP1;ratioP1;P1;durP2;ratioP2;P2;SDS_P1;SDS_P2;PMS_P1;PMS_P2;Temp;Humidity;BMP_temperature;BMP_pressure;BME280_temperature;BME280_humidity;BME280_pressure;Samples;Min_cycle;Max_cycle;Signal;HPM_P1;HPM_P2
2022/04/08 00:01:38;;;;;;;15.30;2.80;;;;;;;6.01;93.79;99683.31;5074694;28;20082;-65
2022/04/08 00:04:04;;;;;;;12.60;2.47;;;;;;;5.96;93.99;99688.56;5074790;28;20028;-64
2022/04/08 00:06:29;;;;;;;19.02;2.80;;;;;;;6.03;93.37;99702.34;5074834;28;20024;-66
2022/04/08 00:08:55;;;;;;;9.93;2.08;;;;;;;6.05;91.85;99695.38;5074803;28;20039;-64
2022/04/08 00:11:20;;;;;;;11.80;2.30;;;;;;;6.04;91.02;99702.31;5074709;28;20344;-67
2022/04/08 00:13:45;;;;;;;11.82;2.17;;;;;;;6.03;91.64;99702.34;5074104;28;20523;-64
2022/04/08 00:16:11;;;;;;;12.90;2.35;;;;;;;6.04;91.31;99715.31;5074583;28;20043;-64
2022/04/08 00:18:39;;;;;;;13.25;2.28;;;;;;;6.07;91.46;99717.84;5066832;28;20025;-65
2022/04/08 00:21:05;;;;;;;10.65;2.20;;;;;;;6.07;91.14;99720.44;5054733;28;20123;-65
2022/04/08 00:23:30;;;;;;;13.32;2.22;;;;;;;6.14;91.31;99729.88;5054658;28;20033;-66
2022/04/08 00:25:55;;;;;;;11.02;2.22;;;;;;;6.19;91.96;99742.81;5054512;28;20341;-65
2022/04/08 00:28:21;;;;;;;10.75;2.55;;;;;;;6.19;91.78;99732.41;5054825;28;20033;-65
2022/04/08 00:30:46;;;;;;;17.60;3.17;;;;;;;6.11;92.64;99732.50;5054916;28;20081;-66
2022/04/08 00:33:11;;;;;;;15.32;2.42;;;;;;;5.97;92.76;99734.41;5054538;28;20033;-65
2022/04/08 00:35:37;;;;;;;13.95;2.35;;;;;;;5.97;92.07;99744.81;5054673;28;20029;-65
2022/04/08 00:38:03;;;;;;;14.63;2.40;;;;;;;5.93;92.54;99725.81;5054414;28;20029;-64
2022/04/08 00:40:28;;;;;;;13.90;2.38;;;;;;;5.92;92.43;99744.84;5054476;28;20119;-65
2022/04/08 00:42:54;;;;;;;12.05;2.42;;;;;;;5.90;93.62;99744.00;5054599;28;20067;-66
2022/04/08 00:45:19;;;;;;;13.95;2.30;;;;;;;5.90;93.60;99750.94;5054301;28;20033;-64
2022/04/08 00:47:44;;;;;;;17.73;2.60;;;;;;;5.88;93.13;99753.59;5054361;28;20029;-65
2022/04/08 00:50:11;;;;;;;15.07;2.55;;;;;;;5.89;92.64;99757.88;5054520;28;20032;-64
2022/04/08 00:52:39;;;;;;;12.65;2.33;;;;;;;5.95;93.35;99767.34;5054456;28;20115;-66
2022/04/08 00:55:06;;;;;;;14.43;2.80;;;;;;;6.03;93.47;99772.44;5057850;28;20032;-67
2022/04/08 00:57:32;;;;;;;13.57;3.20;;;;;;;6.09;92.67;99780.16;5058284;28;20048;-65
2022/04/08 01:00:01;;;;;;;13.70;2.40;;;;;;;6.09;92.68;99777.53;5057978;28;20037;-64
2022/04/08 01:02:28;;;;;;;14.77;2.45;;;;;;;6.08;92.32;99773.22;5058119;28;20033;-66
2022/04/08 01:04:53;;;;;;;15.02;2.65;;;;;;;6.07;91.92;99776.69;5057990;28;20025;-65
2022/04/08 01:07:18;;;;;;;12.38;2.13;;;;;;;6.04;92.02;99777.63;5057981;28;20483;-64
2022/04/08 01:09:44;;;;;;;12.95;2.50;;;;;;;6.03;92.59;99781.09;5057925;28;20048;-65
2022/04/08 01:12:09;;;;;;;12.88;2.45;;;;;;;5.99;91.74;99794.13;5057826;28;20033;-65
2022/04/08 01:14:37;;;;;;;12.15;2.13;;;;;;;5.94;91.41;99795.03;5057897;28;20028;-65
2022/04/08 01:17:03;;;;;;;13.02;2.28;;;;;;;5.96;92.11;99799.34;5057858;28;20059;-65
2022/04/08 01:19:28;;;;;;;13.57;2.60;;;;;;;5.95;90.98;99803.69;5057775;28;20125;-65
2022/04/08 01:21:53;;;;;;;14.27;2.60;;;;;;;6.02;90.74;99800.16;5057695;28;20036;-64
2022/04/08 01:24:22;;;;;;;17.23;2.47;;;;;;;5.93;90.42;99797.66;5057720;28;20368;-65
2022/04/08 01:26:47;;;;;;;12.27;2.53;;;;;;;5.94;90.76;99805.41;5057810;28;20360;-64
2022/04/08 01:29:12;;;;;;;12.93;2.75;;;;;;;5.96;90.35;99804.53;5057829;28;20028;-65
2022/04/08 01:31:43;;;;;;;13.93;2.58;;;;;;;5.90;90.40;99805.47;5057286;28;20457;-64
2022/04/08 01:34:08;;;;;;;15.95;2.60;;;;;;;5.75;90.30;99803.00;5057356;28;20120;-65
2022/04/08 01:36:34;;;;;;;15.82;2.75;;;;;;;5.69;91.17;99822.13;5057434;28;20488;-65
2022/04/08 01:39:00;;;;;;;10.65;2.13;;;;;;;5.69;91.12;99814.34;5057396;28;20336;-66
2022/04/08 01:41:28;;;;;;;16.70;2.53;;;;;;;5.71;90.88;99820.38;5057638;28;20025;-67
2022/04/08 01:43:53;;;;;;;12.57;2.70;;;;;;;5.74;91.25;99811.66;5057624;28;20393;-65
2022/04/08 01:46:18;;;;;;;15.02;3.00;;;;;;;5.74;91.55;99817.72;5057075;28;20071;-64
2022/04/08 01:48:44;;;;;;;19.70;2.90;;;;;;;5.74;92.04;99820.31;5057321;28;20451;-65
2022/04/08 01:51:09;;;;;;;13.55;2.63;;;;;;;5.62;91.90;99817.84;5057157;28;20032;-65
2022/04/08 01:53:34;;;;;;;17.08;2.63;;;;;;;5.58;92.35;99827.41;5056997;28;20029;-65
2022/04/08 01:56:00;;;;;;;15.20;3.20;;;;;;;5.50;92.91;99820.56;5057212;28;20049;-64
2022/04/08 01:58:25;;;;;;;11.10;2.38;;;;;;;5.52;93.07;99826.63;5056908;28;20082;-65
2022/04/08 02:00:50;;;;;;;14.82;2.70;;;;;;;5.53;93.04;99820.56;5057162;28;20033;-65
2022/04/08 02:03:20;;;;;;;14.20;2.88;;;;;;;5.55;92.71;99829.16;5057161;28;20399;-65
2022/04/08 02:05:45;;;;;;;20.70;3.08;;;;;;;5.52;92.28;99839.59;5055729;28;20115;-64
2022/04/08 02:08:10;;;;;;;18.17;3.00;;;;;;;5.50;94.12;99836.13;5056910;28;20113;-65
2022/04/08 02:10:36;;;;;;;15.07;2.78;;;;;;;5.46;94.04;99834.44;5056561;28;20132;-64
2022/04/08 02:13:01;;;;;;;17.83;2.53;;;;;;;5.47;93.36;99846.53;5056748;28;20423;-66
2022/04/08 02:15:31;;;;;;;15.07;2.65;;;;;;;5.45;93.51;99837.91;5056678;28;20051;-65
2022/04/08 02:17:56;;;;;;;15.07;2.75;;;;;;;5.36;94.04;99841.47;5056880;28;20135;-65
2022/04/08 02:20:22;;;;;;;18.63;2.72;;;;;;;5.23;93.96;99843.28;5056681;28;20170;-64
2022/04/08 02:22:48;;;;;;;14.05;2.60;;;;;;;5.18;94.46;99834.69;5056359;28;20495;-65
2022/04/08 02:25:13;;;;;;;16.05;2.78;;;;;;;5.17;94.75;99838.16;5056431;28;20127;-65
2022/04/08 02:27:38;;;;;;;13.30;2.45;;;;;;;5.16;94.64;99854.59;5056232;28;20025;-65
2022/04/08 02:30:04;;;;;;;12.60;2.38;;;;;;;5.11;95.08;99851.16;5056489;28;20132;-64
2022/04/08 02:32:30;;;;;;;14.48;2.75;;;;;;;5.14;95.48;99855.47;5056352;28;20097;-65
2022/04/08 02:34:55;;;;;;;12.65;2.72;;;;;;;5.10;95.25;99861.53;5056412;28;20048;-64
2022/04/08 02:37:20;;;;;;;13.68;3.22;;;;;;;5.09;95.41;99860.66;5056166;28;20087;-66
2022/04/08 02:39:45;;;;;;;11.73;2.50;;;;;;;5.11;94.84;99860.66;5056076;28;20025;-64
2022/04/08 02:42:11;;;;;;;14.63;2.63;;;;;;;5.08;94.95;99858.94;5056427;28;20033;-64
2022/04/08 02:44:36;;;;;;;16.40;2.60;;;;;;;5.13;95.00;99864.09;5056024;28;20036;-65
2022/04/08 02:47:01;;;;;;;13.75;2.65;;;;;;;5.10;95.37;99864.13;5055985;28;20036;-64
2022/04/08 02:49:27;;;;;;;15.68;2.60;;;;;;;5.03;95.00;99865.03;5056184;28;20356;-64
2022/04/08 02:51:52;;;;;;;11.70;2.53;;;;;;;4.99;95.97;99872.00;5055880;28;20110;-65
2022/04/08 02:54:18;;;;;;;13.15;2.67;;;;;;;4.95;95.67;99861.63;5055918;28;20041;-65
2022/04/08 02:56:43;;;;;;;18.48;2.88;;;;;;;4.87;95.31;99861.66;5055694;28;20029;-64
2022/04/08 02:59:09;;;;;;;14.98;2.80;;;;;;;4.87;95.37;99872.03;5055557;28;20037;-65
2022/04/08 03:01:34;;;;;;;11.63;2.75;;;;;;;4.83;96.08;99872.94;5055695;28;20417;-65
2022/04/08 03:03:59;;;;;;;17.10;3.00;;;;;;;4.75;95.26;99865.22;5055529;28;20095;-66
2022/04/08 03:06:26;;;;;;;11.60;2.80;;;;;;;4.74;96.33;99875.59;5055742;28;20033;-65
2022/04/08 03:08:51;;;;;;;8.88;2.20;;;;;;;4.74;96.50;99873.84;5055532;28;20043;-65
2022/04/08 03:11:16;;;;;;;13.52;2.88;;;;;;;4.65;96.55;99860.09;5055528;28;20025;-65
2022/04/08 03:13:42;;;;;;;13.77;2.60;;;;;;;4.58;96.50;99874.81;5055461;28;20044;-64
2022/04/08 03:16:07;;;;;;;9.77;2.55;;;;;;;4.58;96.27;99869.63;5055334;28;20025;-64
2022/04/08 03:18:32;;;;;;;16.75;2.55;;;;;;;4.54;96.77;99873.94;5055701;28;20033;-64
2022/04/08 03:20:58;;;;;;;9.95;2.33;;;;;;;4.46;96.97;99872.28;5055518;28;20087;-65
2022/04/08 03:23:23;;;;;;;14.70;2.75;;;;;;;4.40;97.26;99880.06;5055245;28;20029;-64
2022/04/08 03:25:48;;;;;;;10.65;2.38;;;;;;;4.39;96.91;99879.19;5055181;28;20104;-65
2022/04/08 03:28:14;;;;;;;11.48;2.85;;;;;;;4.37;98.05;99885.25;5055099;28;20159;-64
2022/04/08 03:30:40;;;;;;;12.60;3.30;;;;;;;4.34;97.69;99886.13;5055259;28;20045;-64
2022/04/08 03:33:06;;;;;;;13.40;2.42;;;;;;;4.37;97.71;99887.84;5055038;28;20274;-64
2022/04/08 03:35:32;;;;;;;12.00;2.55;;;;;;;4.29;97.63;99887.88;5055016;28;20124;-65
2022/04/08 03:37:57;;;;;;;15.43;3.00;;;;;;;4.28;98.02;99899.09;5055250;28;20127;-65
2022/04/08 03:40:23;;;;;;;9.70;2.65;;;;;;;4.25;98.15;99896.53;5054859;28;20486;-64
2022/04/08 03:42:48;;;;;;;11.32;2.50;;;;;;;4.24;98.45;99899.09;5055084;28;20059;-64
2022/04/08 03:45:13;;;;;;;11.10;2.80;;;;;;;4.27;98.37;99897.38;5055062;28;20060;-65
2022/04/08 03:47:39;;;;;;;15.10;2.92;;;;;;;4.24;98.45;99899.97;5054743;28;20460;-65
2022/04/08 03:50:05;;;;;;;13.43;2.70;;;;;;;4.16;98.60;99899.13;5055007;28;20033;-65
2022/04/08 03:52:32;;;;;;;11.05;3.08;;;;;;;4.20;98.82;99903.44;5055048;28;20028;-64
2022/04/08 03:55:01;;;;;;;7.95;2.70;;;;;;;4.16;98.70;99906.88;5054293;28;20067;-65
2022/04/08 03:57:27;;;;;;;14.25;3.55;;;;;;;4.14;99.18;99913.81;5054757;28;20040;-64
2022/04/08 03:59:53;;;;;;;8.57;2.70;;;;;;;4.12;99.13;99908.66;5054666;28;20364;-65
2022/04/08 04:02:19;;;;;;;11.05;2.78;;;;;;;4.10;99.24;99906.91;5054939;28;20037;-64
2022/04/08 04:04:44;;;;;;;10.07;2.72;;;;;;;4.02;98.84;99904.34;5054728;28;20054;-64
2022/04/08 04:07:10;;;;;;;13.23;3.45;;;;;;;4.07;99.27;99910.38;5054798;28;20043;-65
2022/04/08 04:09:35;;;;;;;11.52;3.03;;;;;;;4.06;99.26;99894.84;5054736;28;20029;-64
2022/04/08 04:12:01;;;;;;;9.35;3.15;;;;;;;3.96;98.78;99898.31;5054671;28;20029;-65
2022/04/08 04:14:26;;;;;;;12.35;3.20;;;;;;;4.01;99.05;99912.09;5054815;28;20043;-64
2022/04/08 04:16:51;;;;;;;8.02;3.30;;;;;;;4.00;99.15;99900.88;5054650;28;20456;-64
2022/04/08 04:19:17;;;;;;;12.95;3.45;;;;;;;3.95;99.41;99896.59;5055181;28;20332;-64
2022/04/08 04:21:43;;;;;;;8.57;3.22;;;;;;;3.96;99.85;99908.69;5054741;28;20321;-65
2022/04/08 04:24:08;;;;;;;11.20;3.50;;;;;;;3.90;99.54;99904.38;5054021;28;20043;-63
2022/04/08 04:26:34;;;;;;;10.77;3.47;;;;;;;3.81;99.67;99899.19;5054202;28;20029;-63
2022/04/08 04:28:59;;;;;;;9.15;3.58;;;;;;;3.76;99.88;99875.06;5056114;28;20032;-63
2022/04/08 04:31:24;;;;;;;12.95;3.60;;;;;;;3.80;99.62;99900.09;5058079;28;20140;-64
2022/04/08 04:33:49;;;;;;;14.25;4.10;;;;;;;3.78;99.83;99894.91;5058596;28;20032;-64
2022/04/08 04:36:15;;;;;;;8.65;3.80;;;;;;;3.71;99.63;99897.50;5058444;28;20448;-64
2022/04/08 04:38:40;;;;;;;15.30;4.32;;;;;;;3.73;99.83;99899.22;5078297;28;20103;-64
2022/04/08 04:41:06;;;;;;;14.05;4.47;;;;;;;3.73;100.00;99906.13;5078657;28;20374;-63
2022/04/08 04:43:31;;;;;;;12.25;4.32;;;;;;;3.72;100.00;99901.81;5078224;28;20374;-65
2022/04/08 04:45:56;;;;;;;10.02;4.30;;;;;;;3.69;100.00;99900.06;5078287;28;20029;-63
2022/04/08 04:48:22;;;;;;;9.75;4.05;;;;;;;3.67;100.00;99903.53;5078341;28;20098;-65
2022/04/08 04:50:48;;;;;;;10.82;4.82;;;;;;;3.72;100.00;99910.44;5078456;28;20055;-65
2022/04/08 04:53:13;;;;;;;10.80;4.97;;;;;;;3.68;100.00;99902.66;5078034;28;20107;-64
2022/04/08 04:55:38;;;;;;;14.57;5.20;;;;;;;3.67;100.00;99909.56;5078075;28;20032;-65
2022/04/08 04:58:04;;;;;;;15.35;5.20;;;;;;;3.55;100.00;99893.19;5078383;28;20048;-63
2022/04/08 05:00:29;;;;;;;15.43;5.82;;;;;;;3.63;100.00;99910.44;5078192;28;20032;-63
2022/04/08 05:02:54;;;;;;;15.88;6.63;;;;;;;3.69;100.00;99906.97;5078191;28;20090;-64
2022/04/08 05:05:20;;;;;;;14.23;6.70;;;;;;;3.66;100.00;99907.84;5078211;28;20116;-64
2022/04/08 05:07:45;;;;;;;14.50;6.28;;;;;;;3.65;100.00;99903.53;5077848;28;20029;-64
2022/04/08 05:10:10;;;;;;;15.80;6.40;;;;;;;3.66;100.00;99901.78;5077912;28;20128;-64
2022/04/08 05:12:36;;;;;;;15.10;7.45;;;;;;;3.67;100.00;99891.44;5077725;28;20375;-64
2022/04/08 05:15:12;;;;;;;16.20;7.47;;;;;;;3.64;100.00;99894.03;5077803;28;20033;-63
2022/04/08 05:17:37;;;;;;;16.05;7.63;;;;;;;3.65;100.00;99900.94;5077956;28;20029;-64
2022/04/08 05:20:05;;;;;;;15.63;7.38;;;;;;;3.71;100.00;99894.91;5077870;28;20020;-63
2022/04/08 05:22:31;;;;;;;16.90;7.65;;;;;;;3.74;100.00;99900.94;5077551;28;20032;-64
2022/04/08 05:24:58;;;;;;;11.45;7.05;;;;;;;3.75;100.00;99897.50;5077416;28;20032;-64
2022/04/08 05:27:23;;;;;;;17.73;7.18;;;;;;;3.79;100.00;99903.53;5063038;28;20482;-64
2022/04/08 05:29:49;;;;;;;16.27;7.97;;;;;;;3.83;100.00;99905.22;5064598;28;20068;-62
2022/04/08 05:32:14;;;;;;;13.35;7.57;;;;;;;3.93;100.00;99903.50;5057833;28;20053;-63
2022/04/08 05:34:39;;;;;;;17.38;8.43;;;;;;;3.96;100.00;99896.59;5057609;28;20063;-56
2022/04/08 05:37:04;;;;;;;19.40;9.95;;;;;;;4.01;100.00;99896.56;5057230;28;20047;-60
2022/04/08 05:39:31;;;;;;;19.98;9.70;;;;;;;4.08;100.00;99896.56;5057326;28;20033;-65
2022/04/08 05:41:56;;;;;;;15.57;8.77;;;;;;;4.08;100.00;99881.03;5057374;28;20028;-64
2022/04/08 05:44:22;;;;;;;18.80;9.90;;;;;;;4.20;100.00;99885.31;5057228;28;20039;-63
2022/04/08 05:46:47;;;;;;;17.05;10.40;;;;;;;4.08;100.00;99862.06;5057214;28;20037;-64
2022/04/08 05:49:12;;;;;;;19.08;10.63;;;;;;;4.31;100.00;99899.09;5056920;28;20039;-64
2022/04/08 05:51:37;;;;;;;20.48;10.75;;;;;;;4.42;100.00;99881.78;5056994;28;20330;-64
2022/04/08 05:54:03;;;;;;;18.67;9.60;;;;;;;4.54;99.48;99873.94;5057031;28;20045;-63
2022/04/08 05:56:28;;;;;;;17.15;10.13;;;;;;;4.72;98.69;99885.09;5056430;28;20041;-63
2022/04/08 05:58:53;;;;;;;15.98;10.18;;;;;;;4.81;98.69;99872.97;5056820;28;20106;-64
2022/04/08 06:01:18;;;;;;;20.98;9.70;;;;;;;4.98;97.85;99875.44;5056800;28;20021;-63
2022/04/08 06:03:44;;;;;;;13.35;8.88;;;;;;;5.14;96.78;99865.84;5056929;28;20036;-63
2022/04/08 06:06:09;;;;;;;15.15;9.20;;;;;;;5.35;95.38;99865.69;5057019;28;20029;-64
2022/04/08 06:08:34;;;;;;;17.40;9.73;;;;;;;5.69;94.25;99870.56;5056973;28;20040;-64
2022/04/08 06:10:59;;;;;;;13.25;8.90;;;;;;;6.13;91.81;99867.53;5059350;28;20107;-65
2022/04/08 06:13:26;;;;;;;11.63;8.13;;;;;;;6.66;90.13;99861.69;5056765;28;20048;-65
2022/04/08 06:15:52;;;;;;;13.73;7.82;;;;;;;7.44;85.44;99858.81;5056781;28;20082;-64
2022/04/08 06:18:20;;;;;;;10.65;6.40;;;;;;;7.98;83.64;99862.16;5056602;28;20136;-65
2022/04/08 06:20:46;;;;;;;10.82;6.93;;;;;;;7.96;82.40;99860.50;5055956;28;20120;-65
2022/04/08 06:23:11;;;;;;;12.75;7.00;;;;;;;7.74;82.45;99866.97;5056241;28;20056;-65
2022/04/08 06:25:37;;;;;;;10.93;6.47;;;;;;;7.36;83.58;99863.25;5056460;28;20025;-64
2022/04/08 06:28:04;;;;;;;12.75;7.28;;;;;;;7.04;84.85;99868.97;5056464;28;20437;-64
2022/04/08 06:30:31;;;;;;;11.60;6.65;;;;;;;6.77;85.06;99872.81;5056381;28;20106;-64
2022/04/08 06:32:56;;;;;;;14.93;6.97;;;;;;;6.68;85.46;99874.69;5056473;28;20033;-64
2022/04/08 06:35:22;;;;;;;14.65;6.72;;;;;;;6.71;84.95;99872.03;5056299;28;20029;-65
2022/04/08 06:37:48;;;;;;;12.07;6.57;;;;;;;6.78;86.04;99877.13;5056049;28;20416;-65
2022/04/08 06:40:13;;;;;;;10.55;6.15;;;;;;;6.75;85.95;99863.31;5056070;28;20064;-64
2022/04/08 06:42:39;;;;;;;10.82;5.90;;;;;;;6.80;85.82;99859.75;5056351;28;20354;-64
2022/04/08 06:45:06;;;;;;;11.75;6.35;;;;;;;6.72;85.66;99851.22;5056055;28;20021;-65
2022/04/08 06:47:31;;;;;;;13.18;6.65;;;;;;;6.74;85.83;99846.00;5057383;28;20108;-64
2022/04/08 06:49:57;;;;;;;9.77;6.68;;;;;;;6.80;86.32;99856.31;5064718;28;20471;-64
2022/04/08 06:52:22;;;;;;;13.60;6.50;;;;;;;6.81;85.03;99852.81;5064681;28;20036;-65
2022/04/08 06:54:48;;;;;;;13.07;6.70;;;;;;;6.87;85.78;99850.16;5070610;28;20041;-64
2022/04/08 06:57:13;;;;;;;11.90;5.82;;;;;;;6.91;84.95;99844.03;5069481;28;20041;-65
2022/04/08 06:59:39;;;;;;;10.50;6.25;;;;;;;6.80;85.44;99845.91;5060443;28;20040;-64
2022/04/08 07:02:04;;;;;;;10.98;6.68;;;;;;;6.76;85.11;99841.63;5055792;28;20056;-64
2022/04/08 07:04:30;;;;;;;11.55;6.20;;;;;;;6.73;84.78;99847.75;5055559;28;20025;-64
2022/04/08 07:06:56;;;;;;;10.45;5.28;;;;;;;6.72;84.29;99851.22;5056550;28;20515;-65
2022/04/08 07:09:21;;;;;;;11.48;5.85;;;;;;;6.72;85.14;99850.38;5069889;28;20067;-65
2022/04/08 07:11:49;;;;;;;11.77;6.07;;;;;;;6.62;84.45;99836.63;5065349;28;20100;-64
2022/04/08 07:14:14;;;;;;;9.10;6.05;;;;;;;6.81;85.51;99853.69;5068729;28;20032;-65
2022/04/08 07:16:43;;;;;;;8.65;5.53;;;;;;;6.85;85.36;99851.91;5075430;28;20040;-64
2022/04/08 07:19:10;;;;;;;9.40;5.18;;;;;;;6.89;84.14;99846.66;5073425;28;20028;-66
2022/04/08 07:21:35;;;;;;;10.93;5.53;;;;;;;6.85;84.51;99824.16;5063618;28;20051;-64
2022/04/08 07:24:00;;;;;;;11.75;5.40;;;;;;;6.97;83.46;99838.72;5075025;28;20040;-65
2022/04/08 07:26:26;;;;;;;10.88;5.00;;;;;;;6.97;83.26;99836.97;5075400;28;20024;-64
2022/04/08 07:28:51;;;;;;;8.82;4.90;;;;;;;6.92;83.11;99832.75;5064244;28;20048;-64
2022/04/08 07:31:16;;;;;;;9.00;5.15;;;;;;;6.99;82.79;99834.34;5063783;28;20074;-64
2022/04/08 07:33:42;;;;;;;11.25;5.03;;;;;;;6.99;81.86;99842.16;5074985;28;20067;-65
2022/04/08 07:36:07;;;;;;;11.30;5.28;;;;;;;6.95;81.91;99836.13;5074071;28;20079;-64
2022/04/08 07:38:32;;;;;;;10.45;5.03;;;;;;;7.02;82.23;99828.25;5074925;28;20363;-65
2022/04/08 07:40:58;;;;;;;12.52;5.18;;;;;;;7.01;81.84;99830.00;5075193;28;20024;-65
2022/04/08 07:43:24;;;;;;;7.35;4.63;;;;;;;7.02;81.84;99830.84;5069951;28;20041;-66
2022/04/08 07:45:49;;;;;;;10.48;4.60;;;;;;;7.11;83.33;99822.88;5062186;28;20048;-68
2022/04/08 07:48:14;;;;;;;9.68;5.68;;;;;;;7.20;81.92;99836.63;5073285;28;20044;-66
2022/04/08 07:50:40;;;;;;;10.52;4.93;;;;;;;7.20;81.74;99831.44;5060534;28;20028;-65
2022/04/08 07:53:06;;;;;;;9.63;4.93;;;;;;;7.17;81.69;99823.66;5073618;28;20438;-65
2022/04/08 07:55:31;;;;;;;9.40;5.20;;;;;;;7.23;81.95;99815.78;5057836;28;20131;-65
2022/04/08 07:57:57;;;;;;;10.20;4.82;;;;;;;7.24;80.67;99814.88;5072330;28;20032;-67
2022/04/08 08:00:26;;;;;;;107.97;12.65;;;;;;;7.36;82.62;99820.75;5071127;28;20028;-66
2022/04/08 08:02:51;;;;;;;12.68;5.03;;;;;;;7.38;81.54;99821.59;5054021;28;20033;-65
2022/04/08 08:05:18;;;;;;;9.48;5.10;;;;;;;7.37;81.08;99827.69;5054728;28;20364;-65
2022/04/08 08:07:58;;;;;;;8.77;4.80;;;;;;;7.34;81.42;99819.03;5056254;28;20399;-66
2022/04/08 08:10:29;;;;;;;10.30;4.32;;;;;;;7.38;80.41;99817.25;5058798;28;20032;-66
2022/04/08 08:12:57;;;;;;;10.15;4.75;;;;;;;7.43;80.00;99818.03;5061340;28;20047;-66
2022/04/08 08:15:24;;;;;;;8.63;4.50;;;;;;;7.46;79.94;99819.72;5062888;28;20062;-66
2022/04/08 08:17:50;;;;;;;8.63;4.43;;;;;;;7.50;78.69;99819.63;5063102;28;20118;-66
2022/04/08 08:20:17;;;;;;;10.18;4.30;;;;;;;7.56;79.28;99823.88;5054596;28;20369;-65
2022/04/08 08:22:42;;;;;;;9.40;4.28;;;;;;;7.65;77.67;99826.31;5055545;28;20046;-66
2022/04/08 08:25:10;;;;;;;10.48;4.57;;;;;;;7.66;77.00;99828.88;5054294;28;20107;-65
2022/04/08 08:27:48;;;;;;;6.97;3.70;;;;;;;7.66;77.29;99826.28;5054528;28;20441;-66
2022/04/08 08:30:15;;;;;;;9.60;4.70;;;;;;;7.65;76.84;99816.75;5065960;28;20440;-65
2022/04/08 08:32:43;;;;;;;9.80;4.40;;;;;;;7.73;76.08;99813.16;5061297;28;20034;-65
2022/04/08 08:35:10;;;;;;;6.88;3.72;;;;;;;7.79;75.74;99806.13;5060135;28;20082;-66
2022/04/08 08:37:36;;;;;;;5.97;3.90;;;;;;;7.86;74.47;99799.88;5072964;28;20037;-67
2022/04/08 08:40:06;;;;;;;6.55;4.18;;;;;;;7.88;73.22;99798.09;5074530;28;20044;-67
2022/04/08 08:42:35;;;;;;;8.25;3.90;;;;;;;7.94;73.39;99795.41;5074362;28;20044;-65
2022/04/08 08:45:01;;;;;;;9.73;4.07;;;;;;;8.06;74.60;99790.81;5074342;28;20029;-66
2022/04/08 08:47:29;;;;;;;9.63;4.45;;;;;;;8.11;71.79;99781.19;5074176;28;20021;-65
2022/04/08 08:49:55;;;;;;;7.32;3.65;;;;;;;8.10;71.28;99774.25;5074139;28;20451;-66
2022/04/08 08:52:21;;;;;;;8.43;3.67;;;;;;;8.11;72.41;99783.78;5055178;28;20047;-66
2022/04/08 08:54:47;;;;;;;9.30;4.03;;;;;;;8.10;71.34;99776.84;5053446;28;20424;-66
2022/04/08 08:57:19;;;;;;;9.15;3.63;;;;;;;8.19;71.31;99771.44;5054156;28;20178;-66
2022/04/08 08:59:45;;;;;;;8.77;3.90;;;;;;;8.32;72.63;99762.50;5054413;28;20033;-67
2022/04/08 09:02:16;;;;;;;12.38;4.10;;;;;;;8.37;71.37;99760.66;5054230;28;20040;-66
2022/04/08 09:04:42;;;;;;;6.18;3.65;;;;;;;8.42;70.42;99755.34;5054467;28;20072;-69
2022/04/08 09:07:24;;;;;;;6.63;3.35;;;;;;;8.52;70.05;99757.69;5054364;28;20033;-66
2022/04/08 09:09:52;;;;;;;6.72;3.78;;;;;;;8.42;69.23;99756.19;5054412;28;20029;-66
2022/04/08 09:12:18;;;;;;;9.63;3.75;;;;;;;8.45;69.20;99748.31;5058863;28;20032;-68
2022/04/08 09:14:53;;;;;;;9.88;4.00;;;;;;;8.50;69.25;99753.41;5054683;28;20185;-66
2022/04/08 09:17:20;;;;;;;9.15;4.03;;;;;;;8.56;69.11;99755.88;5057643;28;20033;-65
2022/04/08 09:19:58;;;;;;;10.20;4.20;;;;;;;8.61;69.62;99746.22;5057867;28;20051;-66
2022/04/08 09:22:33;;;;;;;8.63;3.70;;;;;;;8.59;68.27;99756.69;5057576;28;20029;-66
2022/04/08 09:25:12;;;;;;;11.43;3.70;;;;;;;8.63;68.35;99750.50;5057409;28;20036;-65
2022/04/08 09:27:39;;;;;;;8.60;3.55;;;;;;;8.56;67.62;99748.94;5057409;28;20037;-65
2022/04/08 09:30:05;;;;;;;6.78;3.75;;;;;;;8.57;67.52;99741.97;5057386;28;20138;-66
2022/04/08 09:32:30;;;;;;;8.00;3.78;;;;;;;8.56;68.69;99748.06;5057838;28;20074;-66
2022/04/08 09:34:55;;;;;;;9.93;3.50;;;;;;;8.58;68.43;99747.16;5057450;28;20372;-66
2022/04/08 09:37:21;;;;;;;8.93;3.45;;;;;;;8.52;67.48;99733.38;5057629;28;20124;-66
2022/04/08 09:40:00;;;;;;;8.10;3.80;;;;;;;8.65;68.77;99748.72;5057070;28;20043;-67
2022/04/08 09:42:41;;;;;;;10.52;3.85;;;;;;;8.78;70.09;99753.66;5057491;28;20028;-69
2022/04/08 09:45:06;;;;;;;8.95;3.72;;;;;;;8.87;68.40;99746.44;5056351;28;20048;-65
2022/04/08 09:47:32;;;;;;;8.40;3.50;;;;;;;8.91;66.77;99752.47;5057023;28;20029;-65
2022/04/08 09:49:57;;;;;;;5.30;3.05;;;;;;;8.89;67.37;99749.88;5057195;28;20071;-67
2022/04/08 09:52:25;;;;;;;9.25;3.20;;;;;;;8.85;66.90;99748.22;5075724;28;20447;-69
2022/04/08 09:54:53;;;;;;;9.63;3.30;;;;;;;8.81;66.10;99748.38;5077059;28;20042;-68
2022/04/08 09:57:18;;;;;;;8.10;3.30;;;;;;;8.84;67.69;99746.53;5069764;28;20059;-65
2022/04/08 09:59:52;;;;;;;11.25;4.03;;;;;;;8.97;67.29;99744.50;5072979;28;20036;-68
2022/04/08 10:02:19;;;;;;;8.88;3.55;;;;;;;9.11;67.18;99747.63;5075573;28;20042;-71
2022/04/08 10:04:44;;;;;;;7.07;3.50;;;;;;;9.17;65.34;99739.63;5075897;28;20413;-70
2022/04/08 10:07:10;;;;;;;6.78;3.47;;;;;;;9.15;66.06;99744.03;5074604;28;20036;-72
2022/04/08 10:09:47;;;;;;;9.77;3.25;;;;;;;9.19;64.95;99740.44;5076365;28;20414;-68
2022/04/08 10:12:26;;;;;;;11.88;3.90;;;;;;;9.20;65.50;99736.06;5074390;28;20052;-72
2022/04/08 10:15:16;;;;;;;8.57;3.70;;;;;;;9.31;66.69;99740.13;5074543;28;20044;-71
2022/04/08 10:17:42;;;;;;;7.38;3.50;;;;;;;9.21;65.03;99738.63;5056480;28;20029;-64
2022/04/08 10:20:21;;;;;;;9.60;3.92;;;;;;;9.26;66.25;99747.22;5056621;28;20029;-68
2022/04/08 10:22:47;;;;;;;7.85;3.65;;;;;;;9.30;66.06;99743.66;5055890;28;20087;-67
2022/04/08 10:25:15;;;;;;;11.55;3.53;;;;;;;9.36;64.92;99740.84;5073076;28;20094;-70
2022/04/08 10:27:41;;;;;;;9.15;3.05;;;;;;;9.41;63.25;99739.00;5074584;28;20058;-64
2022/04/08 10:30:25;;;;;;;7.30;3.25;;;;;;;9.25;65.75;99710.72;5074687;28;20337;-65
2022/04/08 10:33:00;;;;;;;9.25;3.92;;;;;;;9.30;64.01;99727.13;5075259;28;20538;-65
2022/04/08 10:35:26;;;;;;;8.40;3.47;;;;;;;9.32;63.52;99728.81;5074851;28;20020;-67
2022/04/08 10:37:59;;;;;;;8.10;3.20;;;;;;;9.27;64.29;99729.81;5074965;28;20039;-63
2022/04/08 10:40:31;;;;;;;10.13;2.97;;;;;;;9.17;63.09;99734.41;5075895;28;20089;-65
2022/04/08 10:43:02;;;;;;;6.85;3.10;;;;;;;9.03;64.31;99726.91;5076070;28;20029;-68
2022/04/08 10:45:29;;;;;;;11.45;2.70;;;;;;;8.88;64.61;99723.81;5075985;28;20178;-67
2022/04/08 10:47:56;;;;;;;9.60;3.00;;;;;;;8.89;66.58;99726.41;5075708;28;20032;-62
2022/04/08 10:50:33;;;;;;;10.93;3.28;;;;;;;8.99;65.43;99732.28;5076137;28;20032;-65
2022/04/08 10:53:05;;;;;;;9.15;2.72;;;;;;;8.97;64.71;99728.84;5075681;28;20028;-64
2022/04/08 10:55:30;;;;;;;11.45;2.78;;;;;;;9.03;63.92;99728.66;5075987;28;20051;-62
2022/04/08 10:57:59;;;;;;;8.75;3.03;;;;;;;8.97;64.93;99731.44;5075979;28;20411;-61
2022/04/08 11:00:25;;;;;;;9.52;2.78;;;;;;;9.03;64.03;99726.91;5074853;28;20190;-62
2022/04/08 11:02:54;;;;;;;7.28;2.97;;;;;;;9.09;65.77;99738.97;5075847;28;20070;-61
2022/04/08 11:05:20;;;;;;;15.43;3.47;;;;;;;9.12;67.23;99723.22;5075540;28;20085;-60
2022/04/08 11:07:49;;;;;;;10.98;3.65;;;;;;;9.18;66.78;99722.22;5075406;28;20035;-59
2022/04/08 11:10:16;;;;;;;9.65;3.20;;;;;;;9.19;64.48;99710.84;5075587;28;20048;-59
2022/04/08 11:12:47;;;;;;;9.25;3.20;;;;;;;9.28;64.92;99710.63;5075676;28;20035;-59
2022/04/08 11:15:15;;;;;;;9.95;3.28;;;;;;;9.37;64.27;99706.00;5075858;28;20024;-60
2022/04/08 11:17:41;;;;;;;12.13;3.35;;;;;;;9.37;62.28;99708.63;5074303;28;20066;-60
2022/04/08 11:20:09;;;;;;;8.13;3.28;;;;;;;9.34;64.20;99700.03;5075535;28;20044;-58
2022/04/08 11:22:45;;;;;;;10.63;3.25;;;;;;;9.30;62.93;99703.63;5075400;28;20032;-59
2022/04/08 11:25:19;;;;;;;8.52;3.05;;;;;;;9.26;63.20;99697.63;5075266;28;20466;-58
2022/04/08 11:27:56;;;;;;;11.05;3.15;;;;;;;9.29;64.21;99688.84;5074891;28;20104;-64
2022/04/08 11:30:22;;;;;;;8.82;3.00;;;;;;;9.36;63.26;99693.00;5075195;28;20473;-63
2022/04/08 11:32:49;;;;;;;7.10;2.88;;;;;;;9.37;63.80;99686.88;5075284;28;20313;-60